Terminal Aerodrome Forecast
Issued by NWS Pittsburgh, PA

Current Version | Previous Version | Graphics & Text | Print | Product List | Glossary On
Versions: 1 2 3 4 5 6 7 8 9 10 11 12 13 14 15 16 17 18 19 20 21 22 23 24 25 26
000
FTUS41 KPBZ 281500 AAB
TAFPIT
TAF AMD
KPIT 281558Z 2816/2918 33008KT 2SM -DZ BR SCT008 OVC012
      TEMPO 2816/2818 4SM -DZ BKN008
     FM281800 30006KT P6SM BKN025
     FM282100 32005KT P6SM BKN035=

USA.gov is the U.S. government's official web portal to all federal, state and local government web resources and services.